sensor_id;sensor_type;location;lat;lon;timestamp;pressure;altitude;pressure_sealevel;temperature;humidity
59654;BME280;66556;52.008;5.432;2023-02-11T00:00:14;103382.0;;;22.44;32.64
59654;BME280;66556;52.008;5.432;2023-02-11T00:01:52;103381.0;;;22.34;32.5
59654;BME280;66556;52.008;5.432;2023-02-11T00:03:28;103372.0;;;22.77;32.08
59654;BME280;66556;52.008;5.432;2023-02-11T00:06:41;103375.0;;;22.65;32.43
59654;BME280;66556;52.008;5.432;2023-02-11T00:08:17;103378.0;;;22.39;32.76
59654;BME280;66556;52.008;5.432;2023-02-11T00:09:53;103388.00000000001;;;22.46;32.76
59654;BME280;66556;52.008;5.432;2023-02-11T00:13:06;103390.00000000001;;;22.48;32.65
59654;BME280;66556;52.008;5.432;2023-02-11T00:14:42;103380.0;;;22.93;31.66
59654;BME280;66556;52.008;5.432;2023-02-11T00:16:19;103389.00000000001;;;22.57;32.21
59654;BME280;66556;52.008;5.432;2023-02-11T00:19:32;103379.0;;;23.0;31.56
59654;BME280;66556;52.008;5.432;2023-02-11T00:21:10;103371.0;;;22.81;31.93
59654;BME280;66556;52.008;5.432;2023-02-11T00:22:48;103379.0;;;23.15;31.2
59654;BME280;66556;52.008;5.432;2023-02-11T00:24:24;103375.0;;;22.06;33.31
59654;BME280;66556;52.008;5.432;2023-02-11T00:27:37;103381.0;;;21.92;33.4
59654;BME280;66556;52.008;5.432;2023-02-11T00:29:14;103380.0;;;23.14;31.44
59654;BME280;66556;52.008;5.432;2023-02-11T00:30:53;103379.0;;;22.82;31.89
59654;BME280;66556;52.008;5.432;2023-02-11T00:34:06;103380.0;;;23.13;31.68
59654;BME280;66556;52.008;5.432;2023-02-11T00:35:42;103377.0;;;23.62;30.61
59654;BME280;66556;52.008;5.432;2023-02-11T00:37:18;103368.0;;;22.86;31.6
59654;BME280;66556;52.008;5.432;2023-02-11T00:38:55;103373.0;;;23.53;30.72
59654;BME280;66556;52.008;5.432;2023-02-11T00:42:10;103378.0;;;23.52;30.77
59654;BME280;66556;52.008;5.432;2023-02-11T00:43:49;103378.0;;;23.58;30.72
59654;BME280;66556;52.008;5.432;2023-02-11T00:45:27;103371.0;;;23.12;31.51
59654;BME280;66556;52.008;5.432;2023-02-11T00:48:41;103376.0;;;23.36;30.87
59654;BME280;66556;52.008;5.432;2023-02-11T00:50:18;103379.0;;;23.23;30.85
59654;BME280;66556;52.008;5.432;2023-02-11T00:51:55;103380.0;;;23.38;30.87
59654;BME280;66556;52.008;5.432;2023-02-11T00:55:08;103380.0;;;23.29;30.9
59654;BME280;66556;52.008;5.432;2023-02-11T00:56:44;103390.00000000001;;;23.22;30.87
59654;BME280;66556;52.008;5.432;2023-02-11T00:58:21;103383.99999999999;;;23.6;30.7
59654;BME280;66556;52.008;5.432;2023-02-11T00:59:57;103384.99999999999;;;23.4;30.71
59654;BME280;66556;52.008;5.432;2023-02-11T01:03:10;103381.0;;;23.49;30.58
59654;BME280;66556;52.008;5.432;2023-02-11T01:04:47;103379.0;;;23.4;30.81
59654;BME280;66556;52.008;5.432;2023-02-11T01:06:23;103377.0;;;23.76;30.0
59654;BME280;66556;52.008;5.432;2023-02-11T01:09:36;103374.0;;;23.49;30.53
59654;BME280;66556;52.008;5.432;2023-02-11T01:11:16;103371.0;;;23.29;31.02
59654;BME280;66556;52.008;5.432;2023-02-11T01:12:54;103365.00000000001;;;23.44;30.71
59654;BME280;66556;52.008;5.432;2023-02-11T01:14:30;103368.0;;;23.86;29.95
59654;BME280;66556;52.008;5.432;2023-02-11T01:17:45;103365.00000000001;;;23.3;30.86
59654;BME280;66556;52.008;5.432;2023-02-11T01:19:21;103358.99999999999;;;22.81;31.75
59654;BME280;66556;52.008;5.432;2023-02-11T01:20:57;103348.0;;;22.64;32.14
59654;BME280;66556;52.008;5.432;2023-02-11T01:24:13;103345.0;;;22.64;32.17
59654;BME280;66556;52.008;5.432;2023-02-11T01:25:49;103349.0;;;22.38;32.55
59654;BME280;66556;52.008;5.432;2023-02-11T01:27:26;103347.0;;;22.2;32.79
59654;BME280;66556;52.008;5.432;2023-02-11T01:30:38;103347.0;;;22.32;32.53
59654;BME280;66556;52.008;5.432;2023-02-11T01:32:14;103336.99999999999;;;22.68;32.1
59654;BME280;66556;52.008;5.432;2023-02-11T01:33:51;103324.0;;;22.51;32.3
59654;BME280;66556;52.008;5.432;2023-02-11T01:35:27;103311.99999999999;;;22.64;32.14
59654;BME280;66556;52.008;5.432;2023-02-11T01:38:40;103325.0;;;22.86;31.78
59654;BME280;66556;52.008;5.432;2023-02-11T01:40:17;103342.0;;;22.44;32.54
59654;BME280;66556;52.008;5.432;2023-02-11T01:41:53;103343.0;;;22.76;31.65
59654;BME280;66556;52.008;5.432;2023-02-11T01:46:16;103345.0;;;22.7;32.0
59654;BME280;66556;52.008;5.432;2023-02-11T01:48:46;103361.99999999999;;;22.38;32.62
59654;BME280;66556;52.008;5.432;2023-02-11T01:50:25;103359.99999999999;;;22.15;32.79
59654;BME280;66556;52.008;5.432;2023-02-11T01:57:59;103361.99999999999;;;23.01;31.42
59654;BME280;66556;52.008;5.432;2023-02-11T01:59:40;103361.99999999999;;;22.78;31.69
59654;BME280;66556;52.008;5.432;2023-02-11T02:01:26;103359.99999999999;;;22.88;31.88
59654;BME280;66556;52.008;5.432;2023-02-11T02:03:11;103357.0;;;22.7;31.89
59654;BME280;66556;52.008;5.432;2023-02-11T02:04:52;103357.0;;;22.56;32.06
59654;BME280;66556;52.008;5.432;2023-02-11T02:08:27;103353.0;;;22.53;32.22
59654;BME280;66556;52.008;5.432;2023-02-11T02:10:14;103345.0;;;22.24;32.1
59654;BME280;66556;52.008;5.432;2023-02-11T02:12:02;103356.0;;;22.42;32.18
59654;BME280;66556;52.008;5.432;2023-02-11T02:13:39;103359.99999999999;;;21.99;33.06
59654;BME280;66556;52.008;5.432;2023-02-11T02:15:21;103348.0;;;22.99;31.57
59654;BME280;66556;52.008;5.432;2023-02-11T02:18:45;103345.0;;;22.14;32.8
59654;BME280;66556;52.008;5.432;2023-02-11T02:20:48;103345.0;;;22.61;32.39
59654;BME280;66556;52.008;5.432;2023-02-11T02:23:23;103356.0;;;22.23;32.6
59654;BME280;66556;52.008;5.432;2023-02-11T02:25:24;103356.0;;;22.28;32.72
59654;BME280;66556;52.008;5.432;2023-02-11T02:27:18;103354.0;;;22.94;31.66
59654;BME280;66556;52.008;5.432;2023-02-11T02:29:34;103357.0;;;22.61;32.44
59654;BME280;66556;52.008;5.432;2023-02-11T02:33:07;103357.0;;;22.44;32.67
59654;BME280;66556;52.008;5.432;2023-02-11T02:35:04;103355.0;;;21.98;33.28
59654;BME280;66556;52.008;5.432;2023-02-11T02:36:52;103359.99999999999;;;22.22;33.36
59654;BME280;66556;52.008;5.432;2023-02-11T02:38:37;103355.0;;;22.21;33.06
59654;BME280;66556;52.008;5.432;2023-02-11T02:40:19;103347.0;;;21.63;33.82
59654;BME280;66556;52.008;5.432;2023-02-11T02:43:36;103344.0;;;21.86;33.94
59654;BME280;66556;52.008;5.432;2023-02-11T02:45:17;103344.0;;;22.58;32.55
59654;BME280;66556;52.008;5.432;2023-02-11T02:46:54;103341.00000000001;;;22.36;32.49
59654;BME280;66556;52.008;5.432;2023-02-11T02:50:09;103338.00000000001;;;22.01;33.42
59654;BME280;66556;52.008;5.432;2023-02-11T02:52:03;103333.99999999999;;;22.64;32.5
59654;BME280;66556;52.008;5.432;2023-02-11T02:54:12;103329.0;;;22.63;32.49
59654;BME280;66556;52.008;5.432;2023-02-11T02:56:05;103330.0;;;22.84;31.96
59654;BME280;66556;52.008;5.432;2023-02-11T02:58:03;103325.0;;;22.55;32.14
59654;BME280;66556;52.008;5.432;2023-02-11T02:59:51;103328.0;;;22.21;33.0
59654;BME280;66556;52.008;5.432;2023-02-11T03:01:42;103333.0;;;22.82;31.9
59654;BME280;66556;52.008;5.432;2023-02-11T03:03:29;103336.99999999999;;;23.1;31.42
59654;BME280;66556;52.008;5.432;2023-02-11T03:07:00;103342.0;;;22.32;31.95
59654;BME280;66556;52.008;5.432;2023-02-11T03:08:45;103341.00000000001;;;22.54;32.28
59654;BME280;66556;52.008;5.432;2023-02-11T03:10:25;103338.00000000001;;;21.95;33.17
59654;BME280;66556;52.008;5.432;2023-02-11T03:12:05;103349.0;;;22.51;32.39
59654;BME280;66556;52.008;5.432;2023-02-11T03:13:44;103342.0;;;22.79;32.21
59654;BME280;66556;52.008;5.432;2023-02-11T03:17:04;103332.0;;;22.59;32.39
59654;BME280;66556;52.008;5.432;2023-02-11T03:18:45;103329.0;;;22.78;32.14
59654;BME280;66556;52.008;5.432;2023-02-11T03:20:29;103326.0;;;23.02;31.9
59654;BME280;66556;52.008;5.432;2023-02-11T03:22:12;103321.0;;;23.19;31.71
59654;BME280;66556;52.008;5.432;2023-02-11T03:25:35;103322.0;;;23.11;31.58
59654;BME280;66556;52.008;5.432;2023-02-11T03:27:19;103327.0;;;22.97;31.48
59654;BME280;66556;52.008;5.432;2023-02-11T03:29:01;103320.0;;;22.62;32.21
59654;BME280;66556;52.008;5.432;2023-02-11T03:30:46;103315.00000000001;;;23.42;31.17
59654;BME280;66556;52.008;5.432;2023-02-11T03:34:15;103314.00000000001;;;23.16;31.71
59654;BME280;66556;52.008;5.432;2023-02-11T03:35:55;103317.0;;;22.37;32.81
59654;BME280;66556;52.008;5.432;2023-02-11T03:37:38;103316.00000000001;;;22.62;32.49
59654;BME280;66556;52.008;5.432;2023-02-11T03:39:20;103315.00000000001;;;22.52;32.58
59654;BME280;66556;52.008;5.432;2023-02-11T03:41:01;103309.99999999999;;;22.72;32.07
59654;BME280;66556;52.008;5.432;2023-02-11T03:44:21;103314.00000000001;;;22.69;32.14
59654;BME280;66556;52.008;5.432;2023-02-11T03:46:02;103309.99999999999;;;22.75;32.17
59654;BME280;66556;52.008;5.432;2023-02-11T03:47:42;103308.0;;;22.64;32.58
59654;BME280;66556;52.008;5.432;2023-02-11T03:49:25;103307.0;;;22.82;32.12
59654;BME280;66556;52.008;5.432;2023-02-11T03:52:44;103303.0;;;22.42;32.67
59654;BME280;66556;52.008;5.432;2023-02-11T03:54:25;103304.0;;;22.25;32.94
59654;BME280;66556;52.008;5.432;2023-02-11T03:56:08;103302.0;;;22.73;32.36
59654;BME280;66556;52.008;5.432;2023-02-11T03:57:46;103302.0;;;22.57;32.37
59654;BME280;66556;52.008;5.432;2023-02-11T04:01:01;103301.0;;;22.79;31.4
59654;BME280;66556;52.008;5.432;2023-02-11T04:02:41;103303.0;;;22.77;31.75
59654;BME280;66556;52.008;5.432;2023-02-11T04:04:19;103295.0;;;22.94;31.68
59654;BME280;66556;52.008;5.432;2023-02-11T04:07:31;103295.0;;;22.91;31.64
59654;BME280;66556;52.008;5.432;2023-02-11T04:09:08;103298.0;;;22.79;31.98
59654;BME280;66556;52.008;5.432;2023-02-11T04:10:44;103295.0;;;23.35;31.26
59654;BME280;66556;52.008;5.432;2023-02-11T04:12:20;103299.0;;;22.99;31.91
59654;BME280;66556;52.008;5.432;2023-02-11T04:15:33;103304.0;;;23.07;31.29
59654;BME280;66556;52.008;5.432;2023-02-11T04:17:09;103314.00000000001;;;23.43;30.88
59654;BME280;66556;52.008;5.432;2023-02-11T04:18:46;103317.0;;;23.5;30.69
59654;BME280;66556;52.008;5.432;2023-02-11T04:21:59;103315.00000000001;;;23.3;31.01
59654;BME280;66556;52.008;5.432;2023-02-11T04:23:36;103323.0;;;23.1;31.46
59654;BME280;66556;52.008;5.432;2023-02-11T04:25:13;103321.0;;;23.43;30.93
59654;BME280;66556;52.008;5.432;2023-02-11T04:28:28;103326.0;;;23.54;31.01
59654;BME280;66556;52.008;5.432;2023-02-11T04:30:06;103320.0;;;23.85;30.31
59654;BME280;66556;52.008;5.432;2023-02-11T04:31:44;103318.0;;;23.73;30.47
59654;BME280;66556;52.008;5.432;2023-02-11T04:33:22;103320.0;;;23.9;30.22
59654;BME280;66556;52.008;5.432;2023-02-11T04:36:35;103317.0;;;23.7;30.57
59654;BME280;66556;52.008;5.432;2023-02-11T04:38:11;103320.0;;;23.58;30.96
59654;BME280;66556;52.008;5.432;2023-02-11T04:39:49;103321.0;;;23.55;31.13
59654;BME280;66556;52.008;5.432;2023-02-11T04:43:01;103317.0;;;24.15;30.02
59654;BME280;66556;52.008;5.432;2023-02-11T04:44:37;103323.0;;;23.97;30.13
59654;BME280;66556;52.008;5.432;2023-02-11T04:46:13;103324.0;;;23.9;30.41
59654;BME280;66556;52.008;5.432;2023-02-11T04:49:25;103323.0;;;24.1;30.19
59654;BME280;66556;52.008;5.432;2023-02-11T04:51:02;103322.0;;;24.18;29.86
59654;BME280;66556;52.008;5.432;2023-02-11T04:52:38;103330.0;;;23.82;30.44
59654;BME280;66556;52.008;5.432;2023-02-11T04:54:15;103322.0;;;24.09;30.6
59654;BME280;66556;52.008;5.432;2023-02-11T04:57:28;103328.0;;;23.78;30.56
59654;BME280;66556;52.008;5.432;2023-02-11T04:59:04;103326.0;;;23.41;31.34
59654;BME280;66556;52.008;5.432;2023-02-11T05:00:43;103323.0;;;23.6;31.26
59654;BME280;66556;52.008;5.432;2023-02-11T05:03:55;103311.99999999999;;;24.22;30.25
59654;BME280;66556;52.008;5.432;2023-02-11T05:05:32;103318.0;;;23.8;30.9
59654;BME280;66556;52.008;5.432;2023-02-11T05:07:08;103320.0;;;23.65;31.1
59654;BME280;66556;52.008;5.432;2023-02-11T05:10:20;103317.0;;;23.17;31.58
59654;BME280;66556;52.008;5.432;2023-02-11T05:11:57;103317.0;;;23.42;31.57
59654;BME280;66556;52.008;5.432;2023-02-11T05:13:33;103323.0;;;23.38;31.36
59654;BME280;66556;52.008;5.432;2023-02-11T05:15:09;103325.0;;;23.27;31.7
59654;BME280;66556;52.008;5.432;2023-02-11T05:18:21;103325.0;;;23.38;31.6
59654;BME280;66556;52.008;5.432;2023-02-11T05:19:58;103324.0;;;23.62;31.39
59654;BME280;66556;52.008;5.432;2023-02-11T05:21:34;103319.0;;;23.68;31.48
59654;BME280;66556;52.008;5.432;2023-02-11T05:24:47;103318.0;;;23.68;31.27
59654;BME280;66556;52.008;5.432;2023-02-11T05:26:23;103322.0;;;23.01;32.17
59654;BME280;66556;52.008;5.432;2023-02-11T05:28:00;103319.0;;;22.77;32.67
59654;BME280;66556;52.008;5.432;2023-02-11T05:31:13;103324.0;;;22.67;33.01
59654;BME280;66556;52.008;5.432;2023-02-11T05:32:50;103325.0;;;22.82;32.89
59654;BME280;66556;52.008;5.432;2023-02-11T05:34:27;103323.0;;;23.39;32.39
59654;BME280;66556;52.008;5.432;2023-02-11T05:36:05;103327.0;;;23.03;32.44
59654;BME280;66556;52.008;5.432;2023-02-11T05:39:19;103319.0;;;22.67;33.0
59654;BME280;66556;52.008;5.432;2023-02-11T05:40:56;103321.0;;;22.85;32.81
59654;BME280;66556;52.008;5.432;2023-02-11T05:42:32;103318.0;;;23.53;31.75
59654;BME280;66556;52.008;5.432;2023-02-11T05:45:45;103313.00000000001;;;23.81;31.21
59654;BME280;66556;52.008;5.432;2023-02-11T05:47:21;103314.00000000001;;;23.18;32.06
59654;BME280;66556;52.008;5.432;2023-02-11T05:48:57;103313.00000000001;;;23.25;32.3
59654;BME280;66556;52.008;5.432;2023-02-11T05:52:09;103308.0;;;23.01;32.33
59654;BME280;66556;52.008;5.432;2023-02-11T05:53:45;103306.0;;;23.37;31.99
59654;BME280;66556;52.008;5.432;2023-02-11T05:55:23;103308.99999999999;;;23.34;31.71
59654;BME280;66556;52.008;5.432;2023-02-11T05:56:59;103313.00000000001;;;23.04;32.49
59654;BME280;66556;52.008;5.432;2023-02-11T06:00:13;103311.99999999999;;;23.12;32.08
59654;BME280;66556;52.008;5.432;2023-02-11T06:01:50;103318.0;;;22.91;32.65
59654;BME280;66556;52.008;5.432;2023-02-11T06:03:27;103321.0;;;22.78;32.85
59654;BME280;66556;52.008;5.432;2023-02-11T06:06:39;103325.0;;;22.75;33.12
59654;BME280;66556;52.008;5.432;2023-02-11T06:08:15;103323.0;;;23.16;32.67
59654;BME280;66556;52.008;5.432;2023-02-11T06:09:51;103322.0;;;23.3;32.35
59654;BME280;66556;52.008;5.432;2023-02-11T06:13:03;103328.0;;;22.9;32.76
59654;BME280;66556;52.008;5.432;2023-02-11T06:14:40;103325.0;;;22.77;32.96
59654;BME280;66556;52.008;5.432;2023-02-11T06:16:16;103325.0;;;23.29;32.4
59654;BME280;66556;52.008;5.432;2023-02-11T06:17:52;103330.0;;;22.9;32.65
59654;BME280;66556;52.008;5.432;2023-02-11T06:21:06;103329.0;;;23.47;31.8
59654;BME280;66556;52.008;5.432;2023-02-11T06:22:43;103330.0;;;23.59;31.68
59654;BME280;66556;52.008;5.432;2023-02-11T06:24:19;103331.0;;;23.21;32.22
59654;BME280;66556;52.008;5.432;2023-02-11T06:27:38;103334.99999999999;;;23.52;31.84
59654;BME280;66556;52.008;5.432;2023-02-11T06:29:14;103340.00000000001;;;22.93;32.35
59654;BME280;66556;52.008;5.432;2023-02-11T06:30:51;103338.00000000001;;;22.77;32.89
59654;BME280;66556;52.008;5.432;2023-02-11T06:32:27;103340.00000000001;;;23.47;31.95
59654;BME280;66556;52.008;5.432;2023-02-11T06:35:40;103334.99999999999;;;23.5;31.77
59654;BME280;66556;52.008;5.432;2023-02-11T06:37:16;103333.0;;;23.59;31.85
59654;BME280;66556;52.008;5.432;2023-02-11T06:38:53;103325.0;;;23.83;31.29
59654;BME280;66556;52.008;5.432;2023-02-11T06:42:06;103327.0;;;22.16;34.1
59654;BME280;66556;52.008;5.432;2023-02-11T06:43:42;103322.0;;;21.87;34.89
59654;BME280;66556;52.008;5.432;2023-02-11T06:45:19;103320.0;;;21.75;35.15
59654;BME280;66556;52.008;5.432;2023-02-11T06:48:33;103327.0;;;21.87;34.81
59654;BME280;66556;52.008;5.432;2023-02-11T06:50:12;103333.99999999999;;;22.44;33.99
59654;BME280;66556;52.008;5.432;2023-02-11T06:51:49;103340.00000000001;;;22.43;34.08
59654;BME280;66556;52.008;5.432;2023-02-11T06:53:25;103341.00000000001;;;22.1;34.6
59654;BME280;66556;52.008;5.432;2023-02-11T06:56:39;103341.00000000001;;;22.65;33.81
59654;BME280;66556;52.008;5.432;2023-02-11T06:58:16;103339.00000000001;;;22.38;33.94
59654;BME280;66556;52.008;5.432;2023-02-11T06:59:52;103333.0;;;22.91;33.03
59654;BME280;66556;52.008;5.432;2023-02-11T07:03:05;103329.0;;;22.59;33.68
59654;BME280;66556;52.008;5.432;2023-02-11T07:04:41;103330.0;;;22.59;33.62
59654;BME280;66556;52.008;5.432;2023-02-11T07:06:19;103332.0;;;22.6;33.92
59654;BME280;66556;52.008;5.432;2023-02-11T07:09:33;103333.99999999999;;;22.4;34.17
59654;BME280;66556;52.008;5.432;2023-02-11T07:11:10;103342.0;;;22.46;33.99
59654;BME280;66556;52.008;5.432;2023-02-11T07:12:47;103345.0;;;22.41;34.14
59654;BME280;66556;52.008;5.432;2023-02-11T07:14:23;103343.0;;;22.18;34.33
59654;BME280;66556;52.008;5.432;2023-02-11T07:17:41;103347.0;;;21.76;34.81
59654;BME280;66556;52.008;5.432;2023-02-11T07:19:18;103347.0;;;22.33;34.31
59654;BME280;66556;52.008;5.432;2023-02-11T07:20:54;103351.0;;;22.07;34.85
59654;BME280;66556;52.008;5.432;2023-02-11T07:24:06;103352.0;;;22.48;34.0
59654;BME280;66556;52.008;5.432;2023-02-11T07:25:44;103358.0;;;22.33;34.56
59654;BME280;66556;52.008;5.432;2023-02-11T07:27:21;103357.0;;;22.17;34.68
59654;BME280;66556;52.008;5.432;2023-02-11T07:28:57;103356.0;;;21.68;35.67
59654;BME280;66556;52.008;5.432;2023-02-11T07:32:11;103363.00000000001;;;21.64;35.85
59654;BME280;66556;52.008;5.432;2023-02-11T07:33:48;103368.0;;;21.66;35.65
59654;BME280;66556;52.008;5.432;2023-02-11T07:35:24;103366.00000000001;;;21.96;35.01
59654;BME280;66556;52.008;5.432;2023-02-11T07:38:37;103365.00000000001;;;22.27;34.37
59654;BME280;66556;52.008;5.432;2023-02-11T07:40:14;103372.0;;;22.35;34.47
59654;BME280;66556;52.008;5.432;2023-02-11T07:41:50;103372.0;;;22.2;34.53
59654;BME280;66556;52.008;5.432;2023-02-11T07:45:04;103372.0;;;22.5;34.39
59654;BME280;66556;52.008;5.432;2023-02-11T07:46:43;103376.0;;;23.11;33.19
59654;BME280;66556;52.008;5.432;2023-02-11T07:48:20;103375.0;;;22.84;33.74
59654;BME280;66556;52.008;5.432;2023-02-11T07:49:56;103379.0;;;22.8;33.74
59654;BME280;66556;52.008;5.432;2023-02-11T07:53:08;103381.0;;;22.77;33.78
59654;BME280;66556;52.008;5.432;2023-02-11T07:54:44;103380.0;;;21.96;35.53
59654;BME280;66556;52.008;5.432;2023-02-11T07:56:23;103381.0;;;21.96;35.35
59654;BME280;66556;52.008;5.432;2023-02-11T07:59:36;103380.0;;;21.83;35.69
59654;BME280;66556;52.008;5.432;2023-02-11T08:01:14;103375.0;;;21.63;36.46
59654;BME280;66556;52.008;5.432;2023-02-11T08:02:52;103380.0;;;22.11;35.36
59654;BME280;66556;52.008;5.432;2023-02-11T08:06:05;103374.0;;;22.0;35.81
59654;BME280;66556;52.008;5.432;2023-02-11T08:07:42;103378.0;;;22.13;35.35
59654;BME280;66556;52.008;5.432;2023-02-11T08:09:19;103380.0;;;22.09;35.64
59654;BME280;66556;52.008;5.432;2023-02-11T08:10:55;103381.0;;;22.13;35.54
59654;BME280;66556;52.008;5.432;2023-02-11T08:14:07;103383.0;;;21.7;35.74
59654;BME280;66556;52.008;5.432;2023-02-11T08:15:45;103383.99999999999;;;22.3;35.35
59654;BME280;66556;52.008;5.432;2023-02-11T08:17:21;103386.99999999999;;;22.45;35.17
59654;BME280;66556;52.008;5.432;2023-02-11T08:20:37;103390.00000000001;;;22.55;34.93
59654;BME280;66556;52.008;5.432;2023-02-11T08:22:13;103393.0;;;22.62;34.74
59654;BME280;66556;52.008;5.432;2023-02-11T08:23:49;103393.0;;;22.67;34.6
59654;BME280;66556;52.008;5.432;2023-02-11T08:25:26;103394.0;;;22.46;35.06
59654;BME280;66556;52.008;5.432;2023-02-11T08:28:40;103392.0;;;21.94;35.53
59654;BME280;66556;52.008;5.432;2023-02-11T08:30:18;103388.00000000001;;;21.99;36.06
59654;BME280;66556;52.008;5.432;2023-02-11T08:31:54;103388.00000000001;;;22.38;35.08
59654;BME280;66556;52.008;5.432;2023-02-11T08:35:07;103391.00000000001;;;22.54;35.08
59654;BME280;66556;52.008;5.432;2023-02-11T08:36:45;103394.0;;;22.47;35.24
59654;BME280;66556;52.008;5.432;2023-02-11T08:38:22;103395.0;;;22.64;35.03
59654;BME280;66556;52.008;5.432;2023-02-11T08:41:34;103396.0;;;22.79;35.08
59654;BME280;66556;52.008;5.432;2023-02-11T08:43:10;103400.0;;;22.84;34.76
59654;BME280;66556;52.008;5.432;2023-02-11T08:44:46;103397.0;;;23.02;34.53
59654;BME280;66556;52.008;5.432;2023-02-11T08:46:23;103399.0;;;23.23;34.44
59654;BME280;66556;52.008;5.432;2023-02-11T08:49:36;103402.0;;;23.16;34.1
59654;BME280;66556;52.008;5.432;2023-02-11T08:51:15;103404.0;;;23.4;33.9
59654;BME280;66556;52.008;5.432;2023-02-11T08:52:52;103404.0;;;23.22;33.96
59654;BME280;66556;52.008;5.432;2023-02-11T08:56:08;103399.0;;;23.01;34.69
59654;BME280;66556;52.008;5.432;2023-02-11T08:57:45;103396.0;;;23.07;34.61
59654;BME280;66556;52.008;5.432;2023-02-11T08:59:21;103399.0;;;23.58;33.71
59654;BME280;66556;52.008;5.432;2023-02-11T09:02:34;103408.0;;;24.09;32.99
59654;BME280;66556;52.008;5.432;2023-02-11T09:04:10;103414.00000000001;;;23.68;33.69
59654;BME280;66556;52.008;5.432;2023-02-11T09:05:48;103418.0;;;23.41;34.15
59654;BME280;66556;52.008;5.432;2023-02-11T09:07:25;103417.0;;;23.45;34.19
59654;BME280;66556;52.008;5.432;2023-02-11T09:10:39;103419.0;;;23.49;33.96
59654;BME280;66556;52.008;5.432;2023-02-11T09:12:15;103419.0;;;23.31;34.35
59654;BME280;66556;52.008;5.432;2023-02-11T09:13:51;103428.0;;;23.61;33.99
59654;BME280;66556;52.008;5.432;2023-02-11T09:17:05;103434.99999999999;;;23.49;34.21
59654;BME280;66556;52.008;5.432;2023-02-11T09:18:41;103436.99999999999;;;23.76;34.15
59654;BME280;66556;52.008;5.432;2023-02-11T09:20:17;103433.0;;;23.62;34.29
59654;BME280;66556;52.008;5.432;2023-02-11T09:21:55;103438.00000000001;;;23.44;34.61
59654;BME280;66556;52.008;5.432;2023-02-11T09:25:11;103431.0;;;23.97;33.92
59654;BME280;66556;52.008;5.432;2023-02-11T09:26:48;103430.0;;;24.23;33.64
59654;BME280;66556;52.008;5.432;2023-02-11T09:31:38;103428.0;;;23.89;33.87
59654;BME280;66556;52.008;5.432;2023-02-11T09:33:14;103428.0;;;24.19;33.31
59654;BME280;66556;52.008;5.432;2023-02-11T09:34:51;103434.99999999999;;;23.76;33.85
59654;BME280;66556;52.008;5.432;2023-02-11T09:38:06;103436.99999999999;;;24.08;33.47
59654;BME280;66556;52.008;5.432;2023-02-11T09:39:45;103436.99999999999;;;24.14;33.24
59654;BME280;66556;52.008;5.432;2023-02-11T09:41:34;103442.0;;;24.21;33.37
59654;BME280;66556;52.008;5.432;2023-02-11T09:43:45;103444.0;;;24.36;33.3
59654;BME280;66556;52.008;5.432;2023-02-11T09:45:24;103448.0;;;24.07;33.51
59654;BME280;66556;52.008;5.432;2023-02-11T09:47:04;103454.0;;;24.33;32.82
59654;BME280;66556;52.008;5.432;2023-02-11T09:50:26;103456.0;;;24.76;32.49
59654;BME280;66556;52.008;5.432;2023-02-11T09:52:07;103461.99999999999;;;24.77;32.62
59654;BME280;66556;52.008;5.432;2023-02-11T09:53:50;103451.0;;;24.57;32.5
59654;BME280;66556;52.008;5.432;2023-02-11T09:55:33;103458.0;;;24.41;33.1
59654;BME280;66556;52.008;5.432;2023-02-11T09:58:47;103454.0;;;24.63;32.71
59654;BME280;66556;52.008;5.432;2023-02-11T10:00:27;103449.0;;;23.98;33.54
59654;BME280;66556;52.008;5.432;2023-02-11T10:02:13;103450.0;;;23.97;34.06
59654;BME280;66556;52.008;5.432;2023-02-11T10:04:00;103447.0;;;24.47;32.75
59654;BME280;66556;52.008;5.432;2023-02-11T10:07:37;103453.0;;;24.52;32.64
59654;BME280;66556;52.008;5.432;2023-02-11T10:09:34;103458.0;;;24.56;32.87
59654;BME280;66556;52.008;5.432;2023-02-11T10:11:32;103464.00000000001;;;24.69;32.89
59654;BME280;66556;52.008;5.432;2023-02-11T10:13:28;103470.0;;;24.2;33.6
59654;BME280;66556;52.008;5.432;2023-02-11T10:15:23;103475.0;;;23.89;34.46
59654;BME280;66556;52.008;5.432;2023-02-11T10:17:09;103474.0;;;24.31;33.62
59654;BME280;66556;52.008;5.432;2023-02-11T10:19:08;103476.0;;;24.21;34.03
59654;BME280;66556;52.008;5.432;2023-02-11T10:21:05;103473.0;;;24.49;33.31
59654;BME280;66556;52.008;5.432;2023-02-11T10:22:50;103482.0;;;24.47;33.26
59654;BME280;66556;52.008;5.432;2023-02-11T10:26:11;103488.00000000001;;;24.38;33.71
59654;BME280;66556;52.008;5.432;2023-02-11T10:27:48;103491.00000000001;;;24.9;33.08
59654;BME280;66556;52.008;5.432;2023-02-11T10:29:34;103496.0;;;24.65;33.05
59654;BME280;66556;52.008;5.432;2023-02-11T10:31:17;103498.0;;;24.75;33.22
59654;BME280;66556;52.008;5.432;2023-02-11T10:34:40;103497.0;;;24.77;33.43
59654;BME280;66556;52.008;5.432;2023-02-11T10:36:18;103498.0;;;24.84;33.03
59654;BME280;66556;52.008;5.432;2023-02-11T10:37:55;103493.0;;;24.98;33.44
59654;BME280;66556;52.008;5.432;2023-02-11T10:39:31;103491.00000000001;;;24.73;34.85
59654;BME280;66556;52.008;5.432;2023-02-11T10:42:50;103486.99999999999;;;25.08;33.9
59654;BME280;66556;52.008;5.432;2023-02-11T10:44:30;103488.00000000001;;;25.16;34.37
59654;BME280;66556;52.008;5.432;2023-02-11T10:46:14;103494.0;;;25.41;33.29
59654;BME280;66556;52.008;5.432;2023-02-11T10:47:54;103495.0;;;25.98;32.42
59654;BME280;66556;52.008;5.432;2023-02-11T10:51:17;103499.0;;;26.29;32.14
59654;BME280;66556;52.008;5.432;2023-02-11T10:53:10;103497.0;;;26.38;32.07
59654;BME280;66556;52.008;5.432;2023-02-11T10:55:08;103495.0;;;26.35;31.46